sensor_id;sensor_type;location;lat;lon;timestamp;P1;durP1;ratioP1;P2;durP2;ratioP2
33190;SDS011;19554;42.652;23.364;2022-08-21T00:00:24;18.02;;;10.38;;
33190;SDS011;19554;42.652;23.364;2022-08-21T00:02:56;17.63;;;11.55;;
33190;SDS011;19554;42.652;23.364;2022-08-21T00:05:24;16.60;;;10.52;;
33190;SDS011;19554;42.652;23.364;2022-08-21T00:07:50;20.10;;;12.60;;
33190;SDS011;19554;42.652;23.364;2022-08-21T00:10:16;17.20;;;11.98;;
33190;SDS011;19554;42.652;23.364;2022-08-21T00:12:42;18.65;;;12.07;;
33190;SDS011;19554;42.652;23.364;2022-08-21T00:15:09;22.65;;;13.45;;
33190;SDS011;19554;42.652;23.364;2022-08-21T00:17:35;18.10;;;11.60;;
33190;SDS011;19554;42.652;23.364;2022-08-21T00:20:02;19.23;;;12.25;;
33190;SDS011;19554;42.652;23.364;2022-08-21T00:22:31;17.23;;;11.77;;
33190;SDS011;19554;42.652;23.364;2022-08-21T00:24:57;17.75;;;10.77;;
33190;SDS011;19554;42.652;23.364;2022-08-21T00:27:22;16.35;;;11.13;;
33190;SDS011;19554;42.652;23.364;2022-08-21T00:29:48;18.25;;;11.27;;
33190;SDS011;19554;42.652;23.364;2022-08-21T00:32:18;20.45;;;11.80;;
33190;SDS011;19554;42.652;23.364;2022-08-21T00:34:45;18.80;;;11.63;;
33190;SDS011;19554;42.652;23.364;2022-08-21T00:37:10;17.35;;;11.63;;
33190;SDS011;19554;42.652;23.364;2022-08-21T00:39:36;17.27;;;10.77;;
33190;SDS011;19554;42.652;23.364;2022-08-21T00:42:02;17.45;;;10.25;;
33190;SDS011;19554;42.652;23.364;2022-08-21T00:44:27;14.80;;;9.30;;
33190;SDS011;19554;42.652;23.364;2022-08-21T00:46:53;15.60;;;7.30;;
33190;SDS011;19554;42.652;23.364;2022-08-21T00:49:18;13.90;;;8.55;;
33190;SDS011;19554;42.652;23.364;2022-08-21T00:51:48;16.38;;;9.40;;
33190;SDS011;19554;42.652;23.364;2022-08-21T00:54:17;13.93;;;9.52;;
33190;SDS011;19554;42.652;23.364;2022-08-21T00:56:51;13.52;;;10.18;;
33190;SDS011;19554;42.652;23.364;2022-08-21T00:59:20;14.60;;;9.98;;
33190;SDS011;19554;42.652;23.364;2022-08-21T01:01:48;18.77;;;10.35;;
33190;SDS011;19554;42.652;23.364;2022-08-21T01:04:15;15.63;;;9.43;;
33190;SDS011;19554;42.652;23.364;2022-08-21T01:06:41;16.70;;;10.02;;
33190;SDS011;19554;42.652;23.364;2022-08-21T01:09:07;18.30;;;9.95;;
33190;SDS011;19554;42.652;23.364;2022-08-21T01:11:33;17.05;;;10.23;;
33190;SDS011;19554;42.652;23.364;2022-08-21T01:13:59;17.02;;;10.38;;
33190;SDS011;19554;42.652;23.364;2022-08-21T01:16:25;16.90;;;10.30;;
33190;SDS011;19554;42.652;23.364;2022-08-21T01:18:50;20.65;;;11.68;;
33190;SDS011;19554;42.652;23.364;2022-08-21T01:21:24;16.38;;;11.65;;
33190;SDS011;19554;42.652;23.364;2022-08-21T01:23:52;18.05;;;11.57;;
33190;SDS011;19554;42.652;23.364;2022-08-21T01:26:23;19.15;;;11.82;;
33190;SDS011;19554;42.652;23.364;2022-08-21T01:28:59;22.35;;;11.45;;
33190;SDS011;19554;42.652;23.364;2022-08-21T01:31:37;17.65;;;11.32;;
33190;SDS011;19554;42.652;23.364;2022-08-21T01:34:02;21.25;;;12.00;;
33190;SDS011;19554;42.652;23.364;2022-08-21T01:36:28;19.70;;;11.82;;
33190;SDS011;19554;42.652;23.364;2022-08-21T01:38:54;19.52;;;12.07;;
33190;SDS011;19554;42.652;23.364;2022-08-21T01:41:20;19.05;;;11.75;;
33190;SDS011;19554;42.652;23.364;2022-08-21T01:43:45;24.05;;;12.57;;
33190;SDS011;19554;42.652;23.364;2022-08-21T01:46:11;17.65;;;11.38;;
33190;SDS011;19554;42.652;23.364;2022-08-21T01:48:38;20.25;;;12.50;;
33190;SDS011;19554;42.652;23.364;2022-08-21T01:51:04;22.25;;;11.25;;
33190;SDS011;19554;42.652;23.364;2022-08-21T01:53:31;20.02;;;12.07;;
33190;SDS011;19554;42.652;23.364;2022-08-21T01:55:59;23.65;;;12.48;;
33190;SDS011;19554;42.652;23.364;2022-08-21T01:58:24;20.27;;;11.70;;
33190;SDS011;19554;42.652;23.364;2022-08-21T02:00:50;21.02;;;12.07;;
33190;SDS011;19554;42.652;23.364;2022-08-21T02:03:15;20.92;;;12.43;;
33190;SDS011;19554;42.652;23.364;2022-08-21T02:05:40;22.77;;;11.63;;
33190;SDS011;19554;42.652;23.364;2022-08-21T02:08:06;20.85;;;11.55;;
33190;SDS011;19554;42.652;23.364;2022-08-21T02:10:32;24.80;;;11.00;;
33190;SDS011;19554;42.652;23.364;2022-08-21T02:12:58;21.13;;;11.57;;
33190;SDS011;19554;42.652;23.364;2022-08-21T02:15:26;20.52;;;11.98;;
33190;SDS011;19554;42.652;23.364;2022-08-21T02:17:53;18.67;;;10.80;;
33190;SDS011;19554;42.652;23.364;2022-08-21T02:20:31;17.27;;;10.70;;
33190;SDS011;19554;42.652;23.364;2022-08-21T02:23:06;18.27;;;10.70;;
33190;SDS011;19554;42.652;23.364;2022-08-21T02:25:33;17.58;;;9.77;;
33190;SDS011;19554;42.652;23.364;2022-08-21T02:27:59;21.35;;;12.18;;
33190;SDS011;19554;42.652;23.364;2022-08-21T02:32:57;17.02;;;11.30;;
33190;SDS011;19554;42.652;23.364;2022-08-21T02:35:23;18.58;;;12.00;;
33190;SDS011;19554;42.652;23.364;2022-08-21T02:37:53;18.90;;;12.35;;
33190;SDS011;19554;42.652;23.364;2022-08-21T02:40:23;19.58;;;12.68;;
33190;SDS011;19554;42.652;23.364;2022-08-21T02:42:51;21.67;;;13.02;;
33190;SDS011;19554;42.652;23.364;2022-08-21T02:45:16;22.77;;;11.60;;
33190;SDS011;19554;42.652;23.364;2022-08-21T02:47:49;21.63;;;13.70;;
33190;SDS011;19554;42.652;23.364;2022-08-21T02:50:22;24.15;;;11.80;;
33190;SDS011;19554;42.652;23.364;2022-08-21T02:52:49;22.30;;;10.83;;
33190;SDS011;19554;42.652;23.364;2022-08-21T02:55:17;18.52;;;11.02;;
33190;SDS011;19554;42.652;23.364;2022-08-21T02:57:43;19.10;;;11.02;;
33190;SDS011;19554;42.652;23.364;2022-08-21T03:00:09;20.02;;;11.15;;
33190;SDS011;19554;42.652;23.364;2022-08-21T03:02:37;18.48;;;9.77;;
33190;SDS011;19554;42.652;23.364;2022-08-21T03:05:02;16.23;;;9.65;;
33190;SDS011;19554;42.652;23.364;2022-08-21T03:07:29;13.38;;;8.30;;
33190;SDS011;19554;42.652;23.364;2022-08-21T03:09:55;11.65;;;7.80;;
33190;SDS011;19554;42.652;23.364;2022-08-21T03:12:20;20.08;;;8.75;;
33190;SDS011;19554;42.652;23.364;2022-08-21T03:14:45;15.70;;;8.32;;
33190;SDS011;19554;42.652;23.364;2022-08-21T03:17:11;14.77;;;8.07;;
33190;SDS011;19554;42.652;23.364;2022-08-21T03:19:36;11.70;;;7.80;;
33190;SDS011;19554;42.652;23.364;2022-08-21T03:22:02;19.20;;;8.77;;
33190;SDS011;19554;42.652;23.364;2022-08-21T03:24:27;12.90;;;8.10;;
33190;SDS011;19554;42.652;23.364;2022-08-21T03:26:53;15.35;;;6.78;;
33190;SDS011;19554;42.652;23.364;2022-08-21T03:29:18;12.80;;;6.65;;
33190;SDS011;19554;42.652;23.364;2022-08-21T03:31:44;9.55;;;5.90;;
33190;SDS011;19554;42.652;23.364;2022-08-21T03:34:09;10.98;;;6.93;;
33190;SDS011;19554;42.652;23.364;2022-08-21T03:36:35;10.95;;;6.90;;
33190;SDS011;19554;42.652;23.364;2022-08-21T03:39:00;12.23;;;5.97;;
33190;SDS011;19554;42.652;23.364;2022-08-21T03:41:25;14.95;;;6.93;;
33190;SDS011;19554;42.652;23.364;2022-08-21T03:43:51;10.50;;;5.85;;
33190;SDS011;19554;42.652;23.364;2022-08-21T03:46:16;16.90;;;6.40;;
33190;SDS011;19554;42.652;23.364;2022-08-21T03:48:42;10.27;;;5.30;;
33190;SDS011;19554;42.652;23.364;2022-08-21T03:51:07;9.05;;;5.03;;
33190;SDS011;19554;42.652;23.364;2022-08-21T03:53:33;10.55;;;5.22;;
33190;SDS011;19554;42.652;23.364;2022-08-21T03:55:58;8.90;;;4.82;;
33190;SDS011;19554;42.652;23.364;2022-08-21T03:58:25;10.82;;;4.97;;
33190;SDS011;19554;42.652;23.364;2022-08-21T04:00:53;11.45;;;5.70;;
33190;SDS011;19554;42.652;23.364;2022-08-21T04:03:20;7.88;;;5.10;;
33190;SDS011;19554;42.652;23.364;2022-08-21T04:05:47;16.48;;;6.55;;
33190;SDS011;19554;42.652;23.364;2022-08-21T04:08:13;10.48;;;6.82;;
33190;SDS011;19554;42.652;23.364;2022-08-21T04:10:42;15.65;;;8.27;;
33190;SDS011;19554;42.652;23.364;2022-08-21T04:13:08;18.42;;;8.68;;
33190;SDS011;19554;42.652;23.364;2022-08-21T04:15:34;14.77;;;8.13;;
33190;SDS011;19554;42.652;23.364;2022-08-21T04:17:59;13.32;;;8.23;;
33190;SDS011;19554;42.652;23.364;2022-08-21T04:20:26;15.40;;;8.20;;
33190;SDS011;19554;42.652;23.364;2022-08-21T04:22:51;14.35;;;7.70;;
33190;SDS011;19554;42.652;23.364;2022-08-21T04:25:18;12.00;;;8.50;;
33190;SDS011;19554;42.652;23.364;2022-08-21T04:27:45;15.73;;;8.80;;
33190;SDS011;19554;42.652;23.364;2022-08-21T04:30:11;12.35;;;8.18;;
33190;SDS011;19554;42.652;23.364;2022-08-21T04:32:38;16.95;;;10.15;;
33190;SDS011;19554;42.652;23.364;2022-08-21T04:35:11;15.70;;;9.93;;
33190;SDS011;19554;42.652;23.364;2022-08-21T04:37:38;13.88;;;9.00;;
33190;SDS011;19554;42.652;23.364;2022-08-21T04:40:04;11.88;;;9.15;;
33190;SDS011;19554;42.652;23.364;2022-08-21T04:42:31;16.55;;;8.73;;
33190;SDS011;19554;42.652;23.364;2022-08-21T04:44:57;15.80;;;8.20;;
33190;SDS011;19554;42.652;23.364;2022-08-21T04:47:23;13.25;;;7.65;;
33190;SDS011;19554;42.652;23.364;2022-08-21T04:49:49;11.98;;;7.35;;
33190;SDS011;19554;42.652;23.364;2022-08-21T04:52:16;11.05;;;7.40;;
33190;SDS011;19554;42.652;23.364;2022-08-21T04:54:44;11.07;;;7.32;;
33190;SDS011;19554;42.652;23.364;2022-08-21T04:57:11;17.13;;;7.00;;
33190;SDS011;19554;42.652;23.364;2022-08-21T04:59:41;10.40;;;6.20;;
33190;SDS011;19554;42.652;23.364;2022-08-21T05:02:10;11.35;;;6.25;;
33190;SDS011;19554;42.652;23.364;2022-08-21T05:04:38;9.02;;;5.03;;
33190;SDS011;19554;42.652;23.364;2022-08-21T05:07:15;9.20;;;5.05;;
33190;SDS011;19554;42.652;23.364;2022-08-21T05:09:44;9.75;;;5.00;;
33190;SDS011;19554;42.652;23.364;2022-08-21T05:12:09;14.73;;;4.68;;
33190;SDS011;19554;42.652;23.364;2022-08-21T05:14:35;9.50;;;4.00;;
33190;SDS011;19554;42.652;23.364;2022-08-21T05:17:01;10.00;;;4.28;;
33190;SDS011;19554;42.652;23.364;2022-08-21T05:19:26;9.80;;;3.83;;
33190;SDS011;19554;42.652;23.364;2022-08-21T05:21:52;6.50;;;3.97;;
33190;SDS011;19554;42.652;23.364;2022-08-21T05:24:17;7.13;;;3.58;;
33190;SDS011;19554;42.652;23.364;2022-08-21T05:26:43;8.32;;;4.50;;
33190;SDS011;19554;42.652;23.364;2022-08-21T05:29:10;6.90;;;3.42;;
33190;SDS011;19554;42.652;23.364;2022-08-21T05:31:36;11.80;;;4.20;;
33190;SDS011;19554;42.652;23.364;2022-08-21T05:34:02;7.18;;;3.85;;
33190;SDS011;19554;42.652;23.364;2022-08-21T05:36:27;8.63;;;3.78;;
33190;SDS011;19554;42.652;23.364;2022-08-21T05:38:53;11.05;;;4.53;;
33190;SDS011;19554;42.652;23.364;2022-08-21T05:41:18;10.13;;;4.00;;
33190;SDS011;19554;42.652;23.364;2022-08-21T05:43:44;8.60;;;4.32;;
33190;SDS011;19554;42.652;23.364;2022-08-21T05:46:09;11.95;;;3.92;;
33190;SDS011;19554;42.652;23.364;2022-08-21T05:48:35;11.48;;;4.25;;
33190;SDS011;19554;42.652;23.364;2022-08-21T05:51:04;9.73;;;4.97;;
33190;SDS011;19554;42.652;23.364;2022-08-21T05:53:35;11.25;;;5.57;;
33190;SDS011;19554;42.652;23.364;2022-08-21T05:56:01;12.27;;;6.68;;
33190;SDS011;19554;42.652;23.364;2022-08-21T05:58:29;9.23;;;5.95;;
33190;SDS011;19554;42.652;23.364;2022-08-21T06:00:55;11.48;;;5.75;;
33190;SDS011;19554;42.652;23.364;2022-08-21T06:03:25;11.82;;;7.03;;
33190;SDS011;19554;42.652;23.364;2022-08-21T06:05:52;11.38;;;7.80;;
33190;SDS011;19554;42.652;23.364;2022-08-21T06:08:18;14.23;;;8.02;;
33190;SDS011;19554;42.652;23.364;2022-08-21T06:10:45;16.48;;;8.00;;
33190;SDS011;19554;42.652;23.364;2022-08-21T06:13:12;10.25;;;6.72;;
33190;SDS011;19554;42.652;23.364;2022-08-21T06:15:39;11.45;;;8.15;;
33190;SDS011;19554;42.652;23.364;2022-08-21T06:18:04;13.70;;;8.38;;
33190;SDS011;19554;42.652;23.364;2022-08-21T06:20:30;10.40;;;6.68;;
33190;SDS011;19554;42.652;23.364;2022-08-21T06:22:56;12.90;;;7.47;;
33190;SDS011;19554;42.652;23.364;2022-08-21T06:25:22;12.57;;;8.57;;
33190;SDS011;19554;42.652;23.364;2022-08-21T06:27:48;15.50;;;8.43;;
33190;SDS011;19554;42.652;23.364;2022-08-21T06:30:14;10.88;;;8.02;;
33190;SDS011;19554;42.652;23.364;2022-08-21T06:32:39;17.17;;;9.35;;
33190;SDS011;19554;42.652;23.364;2022-08-21T06:35:05;14.45;;;8.35;;
33190;SDS011;19554;42.652;23.364;2022-08-21T06:37:31;20.02;;;8.70;;
33190;SDS011;19554;42.652;23.364;2022-08-21T06:39:56;10.35;;;8.57;;
33190;SDS011;19554;42.652;23.364;2022-08-21T06:42:22;12.30;;;8.32;;
33190;SDS011;19554;42.652;23.364;2022-08-21T06:44:48;12.20;;;8.65;;
33190;SDS011;19554;42.652;23.364;2022-08-21T06:47:14;13.93;;;8.95;;
33190;SDS011;19554;42.652;23.364;2022-08-21T06:49:39;16.10;;;9.02;;
33190;SDS011;19554;42.652;23.364;2022-08-21T06:52:08;16.67;;;8.60;;
33190;SDS011;19554;42.652;23.364;2022-08-21T06:54:36;11.68;;;8.80;;
33190;SDS011;19554;42.652;23.364;2022-08-21T06:57:02;13.73;;;6.97;;
33190;SDS011;19554;42.652;23.364;2022-08-21T06:59:28;19.13;;;8.15;;
33190;SDS011;19554;42.652;23.364;2022-08-21T07:01:53;12.57;;;7.05;;
33190;SDS011;19554;42.652;23.364;2022-08-21T07:04:18;15.45;;;7.53;;
33190;SDS011;19554;42.652;23.364;2022-08-21T07:06:45;14.13;;;7.40;;
33190;SDS011;19554;42.652;23.364;2022-08-21T07:09:10;13.63;;;7.50;;
33190;SDS011;19554;42.652;23.364;2022-08-21T07:11:35;11.80;;;8.35;;
33190;SDS011;19554;42.652;23.364;2022-08-21T07:14:02;14.68;;;7.80;;
33190;SDS011;19554;42.652;23.364;2022-08-21T07:16:28;15.02;;;6.95;;
33190;SDS011;19554;42.652;23.364;2022-08-21T07:18:54;12.63;;;6.57;;
33190;SDS011;19554;42.652;23.364;2022-08-21T07:21:19;10.98;;;7.70;;
33190;SDS011;19554;42.652;23.364;2022-08-21T07:23:46;15.65;;;7.55;;
33190;SDS011;19554;42.652;23.364;2022-08-21T07:26:14;12.50;;;6.97;;
33190;SDS011;19554;42.652;23.364;2022-08-21T07:28:40;19.80;;;7.50;;
33190;SDS011;19554;42.652;23.364;2022-08-21T07:31:06;15.20;;;7.72;;
33190;SDS011;19554;42.652;23.364;2022-08-21T07:33:35;31.70;;;9.57;;
33190;SDS011;19554;42.652;23.364;2022-08-21T07:36:01;15.35;;;7.20;;
33190;SDS011;19554;42.652;23.364;2022-08-21T07:38:27;18.08;;;7.55;;
33190;SDS011;19554;42.652;23.364;2022-08-21T07:40:53;10.48;;;6.07;;
33190;SDS011;19554;42.652;23.364;2022-08-21T07:43:21;13.85;;;8.43;;
33190;SDS011;19554;42.652;23.364;2022-08-21T07:45:46;10.57;;;6.60;;
33190;SDS011;19554;42.652;23.364;2022-08-21T07:48:14;13.88;;;7.45;;
33190;SDS011;19554;42.652;23.364;2022-08-21T07:50:40;16.95;;;7.40;;
33190;SDS011;19554;42.652;23.364;2022-08-21T07:53:07;12.85;;;7.40;;
33190;SDS011;19554;42.652;23.364;2022-08-21T07:55:33;13.13;;;6.90;;
33190;SDS011;19554;42.652;23.364;2022-08-21T07:57:58;11.73;;;7.13;;
33190;SDS011;19554;42.652;23.364;2022-08-21T08:00:24;12.30;;;7.07;;
33190;SDS011;19554;42.652;23.364;2022-08-21T08:02:51;13.95;;;6.97;;
33190;SDS011;19554;42.652;23.364;2022-08-21T08:05:20;12.80;;;6.90;;
33190;SDS011;19554;42.652;23.364;2022-08-21T08:07:50;17.25;;;7.80;;
33190;SDS011;19554;42.652;23.364;2022-08-21T08:10:16;16.25;;;9.00;;
33190;SDS011;19554;42.652;23.364;2022-08-21T08:12:42;13.88;;;7.38;;
33190;SDS011;19554;42.652;23.364;2022-08-21T08:15:11;9.68;;;6.55;;
33190;SDS011;19554;42.652;23.364;2022-08-21T08:17:38;14.23;;;7.65;;
33190;SDS011;19554;42.652;23.364;2022-08-21T08:20:04;15.00;;;7.63;;
33190;SDS011;19554;42.652;23.364;2022-08-21T08:22:30;16.27;;;7.10;;
33190;SDS011;19554;42.652;23.364;2022-08-21T08:24:56;16.00;;;8.10;;
33190;SDS011;19554;42.652;23.364;2022-08-21T08:27:22;16.90;;;9.15;;
33190;SDS011;19554;42.652;23.364;2022-08-21T08:29:47;14.10;;;8.82;;
33190;SDS011;19554;42.652;23.364;2022-08-21T08:32:13;17.65;;;9.70;;
33190;SDS011;19554;42.652;23.364;2022-08-21T08:34:39;19.13;;;9.57;;
33190;SDS011;19554;42.652;23.364;2022-08-21T08:37:05;16.10;;;8.70;;
33190;SDS011;19554;42.652;23.364;2022-08-21T08:39:32;15.40;;;9.57;;
33190;SDS011;19554;42.652;23.364;2022-08-21T08:42:14;20.27;;;9.43;;
33190;SDS011;19554;42.652;23.364;2022-08-21T08:45:11;20.80;;;8.90;;
33190;SDS011;19554;42.652;23.364;2022-08-21T08:47:45;17.92;;;8.48;;
33190;SDS011;19554;42.652;23.364;2022-08-21T08:50:17;17.20;;;8.70;;
33190;SDS011;19554;42.652;23.364;2022-08-21T08:52:51;14.93;;;7.65;;
33190;SDS011;19554;42.652;23.364;2022-08-21T08:55:45;12.73;;;7.40;;
33190;SDS011;19554;42.652;23.364;2022-08-21T08:58:44;13.65;;;8.10;;
33190;SDS011;19554;42.652;23.364;2022-08-21T09:01:05;16.20;;;9.38;;
33190;SDS011;19554;42.652;23.364;2022-08-21T09:03:43;21.20;;;10.63;;
33190;SDS011;19554;42.652;23.364;2022-08-21T09:06:24;18.65;;;9.48;;
33190;SDS011;19554;42.652;23.364;2022-08-21T09:11:48;18.40;;;9.35;;
33190;SDS011;19554;42.652;23.364;2022-08-21T09:25:24;18.42;;;8.57;;
33190;SDS011;19554;42.652;23.364;2022-08-21T09:27:53;17.08;;;8.27;;
33190;SDS011;19554;42.652;23.364;2022-08-21T09:30:19;14.82;;;7.88;;
33190;SDS011;19554;42.652;23.364;2022-08-21T09:32:50;19.40;;;7.60;;
33190;SDS011;19554;42.652;23.364;2022-08-21T09:35:16;18.33;;;8.40;;
33190;SDS011;19554;42.652;23.364;2022-08-21T09:37:58;9.27;;;6.47;;
33190;SDS011;19554;42.652;23.364;2022-08-21T09:40:33;12.27;;;7.10;;
33190;SDS011;19554;42.652;23.364;2022-08-21T09:43:03;11.35;;;6.78;;
33190;SDS011;19554;42.652;23.364;2022-08-21T09:45:32;12.85;;;7.07;;
33190;SDS011;19554;42.652;23.364;2022-08-21T09:50:46;15.55;;;7.13;;
33190;SDS011;19554;42.652;23.364;2022-08-21T09:56:05;11.13;;;6.85;;
33190;SDS011;19554;42.652;23.364;2022-08-21T09:59:11;9.23;;;6.70;;
33190;SDS011;19554;42.652;23.364;2022-08-21T10:04:11;10.77;;;6.68;;
33190;SDS011;19554;42.652;23.364;2022-08-21T10:06:37;16.17;;;6.97;;
33190;SDS011;19554;42.652;23.364;2022-08-21T10:09:07;12.55;;;6.40;;
33190;SDS011;19554;42.652;23.364;2022-08-21T10:11:38;12.30;;;6.18;;
33190;SDS011;19554;42.652;23.364;2022-08-21T10:14:08;10.95;;;6.25;;
33190;SDS011;19554;42.652;23.364;2022-08-21T10:27:37;10.85;;;6.20;;
33190;SDS011;19554;42.652;23.364;2022-08-21T10:40:43;11.35;;;6.13;;
33190;SDS011;19554;42.652;23.364;2022-08-21T10:46:00;11.20;;;6.47;;
33190;SDS011;19554;42.652;23.364;2022-08-21T10:53:40;10.65;;;6.43;;
33190;SDS011;19554;42.652;23.364;2022-08-21T11:04:20;8.13;;;5.55;;
33190;SDS011;19554;42.652;23.364;2022-08-21T11:06:49;12.80;;;6.50;;
33190;SDS011;19554;42.652;23.364;2022-08-21T11:09:24;9.63;;;4.95;;
33190;SDS011;19554;42.652;23.364;2022-08-21T11:11:59;10.82;;;5.00;;
33190;SDS011;19554;42.652;23.364;2022-08-21T11:18:15;8.95;;;4.47;;
33190;SDS011;19554;42.652;23.364;2022-08-21T11:20:36;9.43;;;5.38;;
33190;SDS011;19554;42.652;23.364;2022-08-21T11:23:47;8.15;;;5.80;;
33190;SDS011;19554;42.652;23.364;2022-08-21T11:29:06;12.13;;;5.75;;
33190;SDS011;19554;42.652;23.364;2022-08-21T11:40:11;8.45;;;4.90;;
33190;SDS011;19554;42.652;23.364;2022-08-21T11:43:25;8.63;;;5.32;;
33190;SDS011;19554;42.652;23.364;2022-08-21T11:46:08;11.32;;;5.50;;
33190;SDS011;19554;42.652;23.364;2022-08-21T11:51:38;7.40;;;4.97;;
33190;SDS011;19554;42.652;23.364;2022-08-21T11:54:11;12.05;;;5.30;;
33190;SDS011;19554;42.652;23.364;2022-08-21T11:56:46;10.60;;;4.85;;
33190;SDS011;19554;42.652;23.364;2022-08-21T11:59:40;8.88;;;5.47;;
33190;SDS011;19554;42.652;23.364;2022-08-21T12:02:12;11.20;;;5.35;;
33190;SDS011;19554;42.652;23.364;2022-08-21T12:04:49;10.20;;;4.80;;
33190;SDS011;19554;42.652;23.364;2022-08-21T12:07:30;7.75;;;4.22;;
33190;SDS011;19554;42.652;23.364;2022-08-21T12:10:04;10.35;;;5.13;;
33190;SDS011;19554;42.652;23.364;2022-08-21T12:12:34;8.15;;;5.53;;
33190;SDS011;19554;42.652;23.364;2022-08-21T12:17:40;13.50;;;6.40;;
33190;SDS011;19554;42.652;23.364;2022-08-21T12:20:17;11.30;;;5.78;;
33190;SDS011;19554;42.652;23.364;2022-08-21T12:22:54;6.53;;;4.68;;
33190;SDS011;19554;42.652;23.364;2022-08-21T12:25:58;8.10;;;5.53;;
33190;SDS011;19554;42.652;23.364;2022-08-21T12:28:27;10.75;;;5.40;;
33190;SDS011;19554;42.652;23.364;2022-08-21T12:30:56;11.73;;;5.50;;
33190;SDS011;19554;42.652;23.364;2022-08-21T12:33:29;8.95;;;6.18;;
33190;SDS011;19554;42.652;23.364;2022-08-21T12:36:09;12.25;;;5.90;;
33190;SDS011;19554;42.652;23.364;2022-08-21T12:38:49;11.30;;;5.80;;
33190;SDS011;19554;42.652;23.364;2022-08-21T12:41:19;7.80;;;5.40;;
33190;SDS011;19554;42.652;23.364;2022-08-21T12:43:50;7.13;;;5.32;;
33190;SDS011;19554;42.652;23.364;2022-08-21T12:46:22;8.15;;;5.45;;
33190;SDS011;19554;42.652;23.364;2022-08-21T12:48:56;13.65;;;6.53;;
33190;SDS011;19554;42.652;23.364;2022-08-21T12:51:33;11.48;;;5.38;;
33190;SDS011;19554;42.652;23.364;2022-08-21T12:54:07;10.27;;;5.18;;
33190;SDS011;19554;42.652;23.364;2022-08-21T12:56:33;13.43;;;6.55;;
33190;SDS011;19554;42.652;23.364;2022-08-21T12:59:03;7.65;;;6.05;;
33190;SDS011;19554;42.652;23.364;2022-08-21T13:01:35;11.88;;;5.70;;
33190;SDS011;19554;42.652;23.364;2022-08-21T13:04:08;9.57;;;5.68;;
33190;SDS011;19554;42.652;23.364;2022-08-21T13:06:38;12.50;;;5.88;;
33190;SDS011;19554;42.652;23.364;2022-08-21T13:09:08;9.68;;;4.93;;
33190;SDS011;19554;42.652;23.364;2022-08-21T13:11:38;12.52;;;4.97;;
33190;SDS011;19554;42.652;23.364;2022-08-21T13:14:05;7.82;;;4.70;;
33190;SDS011;19554;42.652;23.364;2022-08-21T13:16:39;8.77;;;5.43;;
33190;SDS011;19554;42.652;23.364;2022-08-21T13:19:05;9.48;;;4.95;;
33190;SDS011;19554;42.652;23.364;2022-08-21T13:21:40;7.68;;;5.10;;
33190;SDS011;19554;42.652;23.364;2022-08-21T13:24:18;10.23;;;5.65;;
33190;SDS011;19554;42.652;23.364;2022-08-21T13:26:47;10.27;;;5.30;;
33190;SDS011;19554;42.652;23.364;2022-08-21T13:29:14;6.15;;;5.32;;
33190;SDS011;19554;42.652;23.364;2022-08-21T13:31:47;8.90;;;5.57;;
33190;SDS011;19554;42.652;23.364;2022-08-21T13:34:26;9.20;;;6.05;;
33190;SDS011;19554;42.652;23.364;2022-08-21T13:36:56;8.88;;;5.47;;
33190;SDS011;19554;42.652;23.364;2022-08-21T13:39:24;10.50;;;5.70;;
33190;SDS011;19554;42.652;23.364;2022-08-21T13:41:52;12.38;;;5.68;;
33190;SDS011;19554;42.652;23.364;2022-08-21T13:44:22;14.45;;;6.22;;
33190;SDS011;19554;42.652;23.364;2022-08-21T13:46:56;8.50;;;5.85;;
33190;SDS011;19554;42.652;23.364;2022-08-21T13:49:26;9.63;;;6.05;;
33190;SDS011;19554;42.652;23.364;2022-08-21T13:52:00;17.75;;;6.45;;
33190;SDS011;19554;42.652;23.364;2022-08-21T13:54:37;16.75;;;6.90;;
33190;SDS011;19554;42.652;23.364;2022-08-21T13:57:14;8.95;;;5.85;;
33190;SDS011;19554;42.652;23.364;2022-08-21T13:59:49;12.48;;;6.43;;
33190;SDS011;19554;42.652;23.364;2022-08-21T14:02:15;13.30;;;6.63;;
33190;SDS011;19554;42.652;23.364;2022-08-21T14:04:54;11.63;;;6.45;;
33190;SDS011;19554;42.652;23.364;2022-08-21T14:07:35;14.95;;;7.05;;
33190;SDS011;19554;42.652;23.364;2022-08-21T14:10:11;8.95;;;5.53;;
33190;SDS011;19554;42.652;23.364;2022-08-21T14:12:41;10.55;;;6.45;;
33190;SDS011;19554;42.652;23.364;2022-08-21T14:15:15;17.08;;;6.97;;
33190;SDS011;19554;42.652;23.364;2022-08-21T14:17:42;12.48;;;6.68;;
33190;SDS011;19554;42.652;23.364;2022-08-21T14:20:10;12.07;;;6.05;;
33190;SDS011;19554;42.652;23.364;2022-08-21T14:22:39;10.95;;;6.93;;
33190;SDS011;19554;42.652;23.364;2022-08-21T14:30:32;12.35;;;5.70;;
33190;SDS011;19554;42.652;23.364;2022-08-21T14:33:00;11.60;;;6.43;;
33190;SDS011;19554;42.652;23.364;2022-08-21T14:35:26;11.88;;;6.15;;
33190;SDS011;19554;42.652;23.364;2022-08-21T14:37:52;13.18;;;6.05;;
33190;SDS011;19554;42.652;23.364;2022-08-21T14:40:19;10.07;;;6.05;;
33190;SDS011;19554;42.652;23.364;2022-08-21T14:42:46;11.35;;;5.82;;
33190;SDS011;19554;42.652;23.364;2022-08-21T14:45:15;10.02;;;6.00;;
33190;SDS011;19554;42.652;23.364;2022-08-21T14:47:43;8.95;;;5.75;;
33190;SDS011;19554;42.652;23.364;2022-08-21T14:50:09;11.32;;;5.70;;
33190;SDS011;19554;42.652;23.364;2022-08-21T14:52:36;11.00;;;6.40;;
33190;SDS011;19554;42.652;23.364;2022-08-21T14:55:03;10.00;;;6.70;;
33190;SDS011;19554;42.652;23.364;2022-08-21T14:57:29;10.20;;;6.05;;
33190;SDS011;19554;42.652;23.364;2022-08-21T14:59:56;12.23;;;6.20;;
33190;SDS011;19554;42.652;23.364;2022-08-21T15:02:21;7.68;;;5.70;;
33190;SDS011;19554;42.652;23.364;2022-08-21T15:04:47;8.00;;;5.57;;
33190;SDS011;19554;42.652;23.364;2022-08-21T15:07:12;12.50;;;6.72;;
33190;SDS011;19554;42.652;23.364;2022-08-21T15:09:38;13.13;;;6.28;;
33190;SDS011;19554;42.652;23.364;2022-08-21T15:12:03;8.63;;;6.10;;
33190;SDS011;19554;42.652;23.364;2022-08-21T15:14:32;13.77;;;5.57;;
33190;SDS011;19554;42.652;23.364;2022-08-21T15:17:00;7.88;;;5.22;;
33190;SDS011;19554;42.652;23.364;2022-08-21T15:19:28;11.10;;;5.78;;
33190;SDS011;19554;42.652;23.364;2022-08-21T15:21:54;10.02;;;6.60;;
33190;SDS011;19554;42.652;23.364;2022-08-21T15:24:20;10.57;;;6.65;;
33190;SDS011;19554;42.652;23.364;2022-08-21T15:26:45;11.27;;;6.75;;
33190;SDS011;19554;42.652;23.364;2022-08-21T15:29:11;10.05;;;6.03;;
33190;SDS011;19554;42.652;23.364;2022-08-21T15:31:36;10.95;;;5.72;;
33190;SDS011;19554;42.652;23.364;2022-08-21T15:34:16;14.88;;;6.35;;
33190;SDS011;19554;42.652;23.364;2022-08-21T15:36:42;12.40;;;6.05;;
33190;SDS011;19554;42.652;23.364;2022-08-21T15:39:07;8.75;;;5.93;;
33190;SDS011;19554;42.652;23.364;2022-08-21T15:41:33;13.88;;;6.97;;
33190;SDS011;19554;42.652;23.364;2022-08-21T15:43:58;8.75;;;6.30;;
33190;SDS011;19554;42.652;23.364;2022-08-21T15:46:24;10.55;;;7.10;;
33190;SDS011;19554;42.652;23.364;2022-08-21T15:48:49;15.15;;;6.40;;
33190;SDS011;19554;42.652;23.364;2022-08-21T15:51:15;11.32;;;6.65;;
33190;SDS011;19554;42.652;23.364;2022-08-21T15:53:41;10.00;;;6.63;;
33190;SDS011;19554;42.652;23.364;2022-08-21T15:56:11;11.73;;;7.00;;
33190;SDS011;19554;42.652;23.364;2022-08-21T15:58:48;13.05;;;6.82;;